Time;durP1;ratioP1;P1;durP2;ratioP2;P2;SDS_P1;SDS_P2;PMS_P1;PMS_P2;Temp;Humidity;BMP_temperature;BMP_pressure;BME280_temperature;BME280_humidity;BME280_pressure;Samples;Min_cycle;Max_cycle;Signal;HPM_P1;HPM_P2
2022/07/13 00:00:30;;;;;;;3.20;1.52;;;;;;;18.32;57.10;101381.56;5014933;28;20054;-61
2022/07/13 00:02:57;;;;;;;2.15;1.73;;;;;;;18.34;56.82;101384.97;5024818;28;20513;-59
2022/07/13 00:05:26;;;;;;;2.25;1.80;;;;;;;18.32;56.60;101377.06;5011261;28;20053;-58
2022/07/13 00:07:53;;;;;;;4.05;1.90;;;;;;;18.32;57.34;101374.41;5021346;28;20060;-59
2022/07/13 00:10:20;;;;;;;8.85;1.70;;;;;;;18.31;57.26;101366.53;5018756;28;20520;-59
2022/07/13 00:12:47;;;;;;;2.35;1.40;;;;;;;18.28;57.27;101369.44;5024741;28;20061;-59
2022/07/13 00:15:14;;;;;;;7.43;1.60;;;;;;;18.28;58.21;101364.13;5023035;28;20054;-59
2022/07/13 00:17:41;;;;;;;2.53;1.80;;;;;;;18.26;57.62;101364.25;5015838;28;20050;-58
2022/07/13 00:20:09;;;;;;;2.72;1.70;;;;;;;18.25;57.60;101365.22;5015813;28;20072;-60
2022/07/13 00:22:36;;;;;;;2.35;1.55;;;;;;;18.21;59.23;101361.94;5023928;28;20060;-57
2022/07/13 00:25:03;;;;;;;3.40;1.88;;;;;;;18.16;58.71;101358.81;5013954;28;20056;-59
2022/07/13 00:27:30;;;;;;;5.28;1.92;;;;;;;18.16;58.72;101361.47;5017659;28;20049;-58
2022/07/13 00:29:58;;;;;;;3.03;1.90;;;;;;;18.15;58.80;101361.59;5017798;28;20545;-58
2022/07/13 00:32:25;;;;;;;2.28;1.50;;;;;;;18.15;58.47;101359.78;5019778;28;20061;-58
2022/07/13 00:34:52;;;;;;;3.17;1.85;;;;;;;18.19;58.13;101360.34;5018720;28;20062;-58
2022/07/13 00:37:19;;;;;;;2.92;1.30;;;;;;;18.21;57.99;101356.63;5009226;28;20056;-58
2022/07/13 00:39:46;;;;;;;1.70;1.40;;;;;;;18.24;57.57;101355.53;5020774;28;20053;-59
2022/07/13 00:42:13;;;;;;;2.47;1.50;;;;;;;18.26;57.55;101348.25;5022602;28;20065;-59
2022/07/13 00:44:40;;;;;;;2.75;1.58;;;;;;;18.27;58.04;101352.59;5019260;28;20072;-61
2022/07/13 00:47:08;;;;;;;3.92;1.90;;;;;;;18.26;58.16;101344.75;5008085;28;20069;-59
2022/07/13 00:49:35;;;;;;;2.03;1.40;;;;;;;18.24;58.32;101339.53;5019932;28;20057;-59
2022/07/13 00:52:02;;;;;;;5.85;1.33;;;;;;;18.24;58.04;101342.22;5017802;28;20430;-59
2022/07/13 00:54:30;;;;;;;1.88;1.40;;;;;;;18.24;59.04;101336.88;5017178;28;20451;-60
2022/07/13 00:56:58;;;;;;;3.85;1.90;;;;;;;18.21;59.17;101337.97;5016797;28;20069;-58
2022/07/13 00:59:25;;;;;;;4.28;1.77;;;;;;;18.23;58.99;101340.50;5026364;28;20056;-61
2022/07/13 01:01:53;;;;;;;3.80;1.60;;;;;;;18.23;58.75;101332.50;5019334;28;20145;-60
2022/07/13 01:04:23;;;;;;;3.67;1.83;;;;;;;18.24;58.46;101328.88;5019676;28;20042;-56
2022/07/13 01:06:53;;;;;;;2.38;1.75;;;;;;;18.27;58.08;101322.44;5013414;28;20053;-57
2022/07/13 01:09:21;;;;;;;2.53;1.92;;;;;;;18.29;57.79;101324.03;5018400;28;20045;-57
2022/07/13 01:11:48;;;;;;;4.40;1.80;;;;;;;18.30;58.03;101322.22;5039293;22;20449;-57
2022/07/13 01:14:15;;;;;;;6.50;1.65;;;;;;;18.29;58.71;101324.03;5055373;28;20397;-59
2022/07/13 01:16:43;;;;;;;2.60;1.50;;;;;;;18.29;58.45;101320.53;5051719;28;20072;-58
2022/07/13 01:19:12;;;;;;;2.30;1.40;;;;;;;18.28;58.79;101322.34;5053729;28;20069;-56
2022/07/13 01:21:41;;;;;;;2.92;1.85;;;;;;;18.28;58.90;101321.47;5051354;28;20049;-56
2022/07/13 01:24:08;;;;;;;4.63;1.55;;;;;;;18.30;58.17;101314.22;5050417;28;20052;-56
2022/07/13 01:26:36;;;;;;;6.50;1.80;;;;;;;18.31;58.63;101318.56;5054456;28;20813;-55
2022/07/13 01:29:03;;;;;;;6.28;1.70;;;;;;;18.30;58.52;101316.88;5058024;28;20052;-57
2022/07/13 01:31:38;;;;;;;2.67;1.60;;;;;;;18.30;59.14;101314.22;5058611;28;20144;-58
2022/07/13 01:34:07;;;;;;;5.22;1.60;;;;;;;18.29;59.32;101304.53;5055967;28;20394;-61
2022/07/13 01:36:35;;;;;;;3.30;2.22;;;;;;;18.31;59.11;101315.91;5055044;28;20071;-57
2022/07/13 01:39:03;;;;;;;5.97;1.65;;;;;;;18.31;59.14;101321.22;5058718;28;20072;-58
2022/07/13 01:41:31;;;;;;;2.13;1.50;;;;;;;18.31;58.92;101313.22;5053613;28;20057;-58
2022/07/13 01:43:58;;;;;;;3.20;1.60;;;;;;;18.32;59.15;101314.94;5056360;28;20045;-59
2022/07/13 01:50:57;;;;;;;4.88;1.70;;;;;;;18.30;59.40;101314.22;5056981;28;20451;-58
2022/07/13 01:53:24;;;;;;;5.72;1.70;;;;;;;18.29;60.01;101309.84;5061846;28;20140;-58
2022/07/13 01:55:52;;;;;;;3.50;1.95;;;;;;;18.27;60.75;101311.78;5059463;28;20049;-58
2022/07/13 01:58:19;;;;;;;6.28;1.88;;;;;;;18.26;61.01;101315.44;5057586;28;20148;-57
2022/07/13 02:00:46;;;;;;;2.30;1.75;;;;;;;18.23;60.65;101312.03;5048233;28;20065;-57
2022/07/13 02:03:13;;;;;;;2.85;1.35;;;;;;;18.27;60.31;101309.13;5058147;28;20049;-56
2022/07/13 02:05:40;;;;;;;3.17;1.63;;;;;;;18.30;60.20;101315.06;5052065;28;20063;-57
2022/07/13 02:08:07;;;;;;;3.83;1.63;;;;;;;18.34;59.99;101297.00;5059728;28;20623;-55
2022/07/13 02:10:35;;;;;;;2.70;1.45;;;;;;;18.37;59.77;101294.06;5050653;28;20053;-56
2022/07/13 02:13:07;;;;;;;2.67;1.50;;;;;;;18.39;59.32;101286.81;5057164;28;20462;-57
2022/07/13 02:15:35;;;;;;;7.05;1.90;;;;;;;18.38;59.31;101288.63;5058088;28;20523;-57
2022/07/13 02:18:03;;;;;;;2.13;1.80;;;;;;;18.38;59.70;101279.78;5058322;28;20556;-57
2022/07/13 02:20:30;;;;;;;3.03;1.70;;;;;;;18.38;59.40;101285.97;5053203;28;20053;-55
2022/07/13 02:22:57;;;;;;;3.83;2.15;;;;;;;18.38;60.05;101287.78;5056722;28;20161;-54
2022/07/13 02:25:24;;;;;;;3.15;1.63;;;;;;;18.36;60.31;101281.72;5054975;28;20037;-58
2022/07/13 02:27:52;;;;;;;5.57;1.85;;;;;;;18.35;60.79;101285.38;5056609;28;20059;-61
2022/07/13 02:30:19;;;;;;;4.50;1.75;;;;;;;18.35;60.62;101288.03;5052373;28;20056;-57
2022/07/13 02:32:51;;;;;;;3.03;1.70;;;;;;;18.37;60.75;101288.75;5061139;28;20067;-58
2022/07/13 02:35:19;;;;;;;2.60;1.58;;;;;;;18.36;60.84;101290.56;5051686;28;20045;-58
2022/07/13 02:37:46;;;;;;;2.67;1.63;;;;;;;18.38;60.39;101287.78;5063578;28;20057;-59
2022/07/13 02:40:13;;;;;;;3.88;1.65;;;;;;;18.36;61.35;101284.38;5054613;28;20409;-57
2022/07/13 02:42:46;;;;;;;1.95;1.30;;;;;;;18.38;61.08;101291.31;5055302;28;20057;-59
2022/07/13 02:45:13;;;;;;;3.40;1.63;;;;;;;18.39;61.78;101297.47;5058666;28;20060;-57
2022/07/13 02:47:40;;;;;;;6.05;1.90;;;;;;;18.38;62.04;101299.28;5057797;28;20060;-56
2022/07/13 02:50:07;;;;;;;5.75;2.05;;;;;;;18.40;62.22;101300.00;5056498;28;20045;-57
2022/07/13 02:52:34;;;;;;;3.25;1.40;;;;;;;18.42;61.78;101290.09;5055533;28;20219;-60
2022/07/13 02:55:01;;;;;;;3.22;1.83;;;;;;;18.44;61.72;101289.94;5058105;28;20057;-60
2022/07/13 02:57:28;;;;;;;2.40;1.60;;;;;;;18.46;62.24;101301.31;5058723;28;20052;-56
2022/07/13 02:59:55;;;;;;;3.47;1.30;;;;;;;18.44;62.56;101292.63;5053158;28;20060;-57
2022/07/13 03:02:23;;;;;;;6.53;2.00;;;;;;;18.42;63.06;101284.75;5054867;28;20056;-60
2022/07/13 03:04:50;;;;;;;2.03;1.58;;;;;;;18.44;62.49;101295.28;5048957;28;20048;-57
2022/07/13 03:07:17;;;;;;;3.53;1.58;;;;;;;18.44;62.69;101274.78;5058310;28;20048;-60
2022/07/13 03:09:44;;;;;;;3.25;1.40;;;;;;;18.44;62.88;101273.94;5050691;28;20063;-57
2022/07/13 03:12:11;;;;;;;2.72;1.30;;;;;;;18.45;62.93;101286.31;5058084;28;20071;-56
2022/07/13 03:14:38;;;;;;;2.88;1.17;;;;;;;18.45;62.94;101280.97;5053642;28;20060;-58
2022/07/13 03:17:06;;;;;;;3.70;2.13;;;;;;;18.44;62.80;101274.78;5049712;28;20044;-56
2022/07/13 03:19:33;;;;;;;4.05;1.25;;;;;;;18.45;61.97;101272.97;5059803;28;20633;-58
2022/07/13 03:22:03;;;;;;;3.65;2.00;;;;;;;18.46;62.62;101272.00;5055704;28;20045;-59
2022/07/13 03:24:31;;;;;;;2.17;1.35;;;;;;;18.44;62.79;101277.47;5068868;28;20053;-60
2022/07/13 03:26:58;;;;;;;7.32;2.45;;;;;;;18.45;62.75;101270.31;5064115;28;20063;-58
2022/07/13 03:29:26;;;;;;;4.78;2.00;;;;;;;18.46;63.66;101269.31;5070161;28;20102;-58
2022/07/13 03:31:53;;;;;;;5.55;2.05;;;;;;;18.45;63.43;101254.31;5059199;28;20053;-59
2022/07/13 03:34:20;;;;;;;3.15;1.60;;;;;;;18.46;63.39;101253.34;5063259;28;20057;-57
2022/07/13 03:36:47;;;;;;;7.85;1.80;;;;;;;18.46;62.92;101250.66;5055980;28;20053;-58
2022/07/13 03:39:14;;;;;;;4.28;1.67;;;;;;;18.47;62.72;101260.38;5057835;28;20052;-58
2022/07/13 03:41:42;;;;;;;4.43;1.70;;;;;;;18.46;62.75;101267.53;5054146;28;20580;-57
2022/07/13 03:44:09;;;;;;;3.50;1.60;;;;;;;18.45;63.85;101263.16;5060422;28;20045;-57
2022/07/13 03:46:36;;;;;;;4.72;1.73;;;;;;;18.45;63.86;101249.81;5058649;28;20053;-59
2022/07/13 03:49:03;;;;;;;3.80;1.48;;;;;;;18.45;63.51;101257.81;5051910;28;20068;-58
2022/07/13 03:51:30;;;;;;;2.13;1.60;;;;;;;18.45;64.13;101255.16;5044886;28;20516;-59
2022/07/13 03:53:57;;;;;;;3.78;1.60;;;;;;;18.46;64.49;101250.66;5048675;28;20045;-55
2022/07/13 03:56:24;;;;;;;4.90;1.77;;;;;;;18.46;64.18;101243.53;5055530;28;20052;-58
2022/07/13 03:58:51;;;;;;;5.07;2.03;;;;;;;18.50;64.38;101246.78;5053487;28;20056;-58
2022/07/13 04:01:19;;;;;;;7.30;2.03;;;;;;;18.51;64.73;101240.50;5048843;28;20045;-57
2022/07/13 04:03:47;;;;;;;5.20;2.08;;;;;;;18.54;64.36;101248.22;5050341;28;20058;-57
2022/07/13 04:06:14;;;;;;;7.35;1.75;;;;;;;18.58;64.08;101255.00;5055863;28;20061;-59
2022/07/13 04:08:41;;;;;;;4.15;1.65;;;;;;;18.61;63.73;101252.09;5047402;28;20445;-57
2022/07/13 04:11:08;;;;;;;3.83;1.70;;;;;;;18.63;64.31;101246.63;5056524;28;20052;-58
2022/07/13 04:13:36;;;;;;;3.55;2.05;;;;;;;18.66;64.33;101244.53;5057699;28;20049;-56
2022/07/13 04:16:03;;;;;;;3.10;1.65;;;;;;;18.69;65.13;101236.34;5055419;28;20058;-58
2022/07/13 04:18:32;;;;;;;4.03;1.58;;;;;;;18.73;64.64;101231.56;5049786;28;20041;-58
2022/07/13 04:20:59;;;;;;;7.13;1.58;;;;;;;18.77;64.43;101233.00;5056111;28;20052;-58
2022/07/13 04:23:28;;;;;;;4.40;1.80;;;;;;;18.80;64.46;101227.41;5054720;28;20045;-58
2022/07/13 04:25:56;;;;;;;4.10;1.90;;;;;;;18.85;64.68;101235.03;5059044;28;20652;-58
2022/07/13 04:28:23;;;;;;;2.40;1.83;;;;;;;18.86;64.55;101232.22;5049684;28;20053;-59
2022/07/13 04:30:51;;;;;;;5.10;1.65;;;;;;;18.88;64.35;101238.28;5060826;28;20053;-57
2022/07/13 04:33:18;;;;;;;2.38;1.67;;;;;;;18.86;65.07;101240.22;5048561;28;20045;-58
2022/07/13 04:35:46;;;;;;;3.20;1.80;;;;;;;18.88;65.21;101235.63;5048919;28;20045;-58
2022/07/13 04:38:13;;;;;;;6.78;1.65;;;;;;;18.93;65.18;101241.41;5059895;28;20049;-57
2022/07/13 04:40:40;;;;;;;4.65;1.60;;;;;;;18.97;65.25;101234.00;5049783;28;20056;-58
2022/07/13 04:43:08;;;;;;;5.60;1.88;;;;;;;18.93;65.70;101243.25;5049289;28;20045;-59
2022/07/13 04:45:35;;;;;;;2.38;1.65;;;;;;;18.95;65.97;101242.13;5048836;28;20498;-59
2022/07/13 04:48:03;;;;;;;3.20;1.70;;;;;;;19.04;65.52;101253.00;5054473;28;20049;-58
2022/07/13 04:50:31;;;;;;;4.50;1.92;;;;;;;19.08;65.24;101247.28;5050118;28;20136;-57
2022/07/13 04:52:58;;;;;;;6.32;1.63;;;;;;;19.13;64.83;101255.72;5054882;28;20052;-59
2022/07/13 04:55:26;;;;;;;4.20;1.90;;;;;;;19.17;64.90;101246.50;5056115;28;20044;-57
2022/07/13 04:57:55;;;;;;;4.85;1.75;;;;;;;19.21;65.07;101239.06;5057637;28;20047;-59
2022/07/13 05:00:22;;;;;;;4.00;1.70;;;;;;;19.30;64.98;101240.94;5049488;28;20049;-60
2022/07/13 05:02:49;;;;;;;3.00;1.60;;;;;;;19.39;64.43;101234.81;5060215;28;20049;-57
2022/07/13 05:05:17;;;;;;;4.38;1.83;;;;;;;19.49;64.04;101237.53;5048858;28;20067;-55
2022/07/13 05:07:44;;;;;;;4.53;2.05;;;;;;;19.58;64.40;101239.41;5057231;28;20064;-55
2022/07/13 05:10:11;;;;;;;4.85;2.10;;;;;;;19.57;64.44;101232.38;5055735;28;20061;-58
2022/07/13 05:12:39;;;;;;;4.47;2.00;;;;;;;19.63;64.14;101234.56;5059198;28;20049;-57
2022/07/13 05:15:08;;;;;;;4.07;1.92;;;;;;;19.69;63.77;101235.84;5051510;28;20057;-58
2022/07/13 05:17:35;;;;;;;2.53;1.80;;;;;;;19.76;63.75;101241.47;5060560;28;20078;-58
2022/07/13 05:20:04;;;;;;;4.40;1.60;;;;;;;19.79;63.89;101247.41;5058138;28;20052;-56
2022/07/13 05:22:31;;;;;;;10.35;2.10;;;;;;;19.87;63.98;101244.06;5062228;28;20053;-58
2022/07/13 05:24:59;;;;;;;5.40;1.90;;;;;;;19.87;63.67;101246.75;5058275;28;20053;-54
2022/07/13 05:27:26;;;;;;;5.38;1.95;;;;;;;19.93;63.83;101236.34;5053655;28;20053;-60
2022/07/13 05:29:53;;;;;;;10.68;2.40;;;;;;;19.96;63.55;101238.75;5058603;28;20593;-57
2022/07/13 05:32:20;;;;;;;8.88;1.80;;;;;;;19.90;63.71;101233.97;5052864;28;20053;-57
2022/07/13 05:34:47;;;;;;;5.55;1.60;;;;;;;20.03;63.72;101238.19;5051085;28;20045;-57
2022/07/13 05:37:15;;;;;;;3.78;2.00;;;;;;;20.05;63.49;101231.75;5052393;28;20056;-56
2022/07/13 05:39:43;;;;;;;7.47;2.47;;;;;;;20.07;63.85;101232.44;5061305;28;20528;-57
2022/07/13 05:42:11;;;;;;;5.85;1.90;;;;;;;20.19;63.36;101234.00;5055474;28;20045;-57
2022/07/13 05:44:38;;;;;;;11.05;2.35;;;;;;;20.27;63.07;101232.50;5062336;28;20148;-59
2022/07/13 05:47:06;;;;;;;7.05;2.63;;;;;;;20.38;63.11;101229.69;5057810;28;20041;-58
2022/07/13 05:49:33;;;;;;;7.05;2.20;;;;;;;20.40;63.17;101230.41;5056275;28;20417;-58
2022/07/13 05:52:00;;;;;;;11.52;2.50;;;;;;;20.50;63.37;101231.28;5054475;28;20053;-58
2022/07/13 05:54:27;;;;;;;4.00;2.17;;;;;;;20.61;62.45;101231.13;5055218;28;20634;-59
2022/07/13 05:57:11;;;;;;;4.85;2.13;;;;;;;20.57;62.24;101239.56;5058322;28;20064;-57
2022/07/13 05:59:38;;;;;;;8.00;2.05;;;;;;;20.57;62.16;101232.38;5054196;28;20064;-58
2022/07/13 06:02:05;;;;;;;2.50;1.67;;;;;;;20.68;61.97;101236.78;5060725;28;20373;-57
2022/07/13 06:04:32;;;;;;;11.65;1.95;;;;;;;20.62;62.16;101237.31;5050175;28;20063;-57
2022/07/13 06:06:59;;;;;;;9.07;2.20;;;;;;;20.62;62.02;101243.50;5053412;28;20540;-59
2022/07/13 06:09:28;;;;;;;7.18;2.15;;;;;;;20.66;61.62;101231.53;5056165;28;20053;-57
2022/07/13 06:11:55;;;;;;;6.95;2.45;;;;;;;20.74;61.87;101237.03;5054295;28;20068;-59
2022/07/13 06:14:22;;;;;;;6.03;1.98;;;;;;;20.80;61.16;101230.28;5056209;28;20057;-58
2022/07/13 06:16:49;;;;;;;6.07;1.77;;;;;;;20.96;61.27;101233.22;5051917;28;20068;-56
2022/07/13 06:19:16;;;;;;;7.28;1.85;;;;;;;21.11;60.52;101244.31;5051779;28;20371;-58
2022/07/13 06:21:43;;;;;;;9.07;2.28;;;;;;;21.03;60.10;101244.22;5059251;28;20049;-55
2022/07/13 06:24:10;;;;;;;3.45;2.00;;;;;;;21.11;60.30;101238.13;5049915;28;20071;-57
2022/07/13 06:26:38;;;;;;;3.70;1.30;;;;;;;21.19;59.71;101231.06;5051880;28;20065;-57
2022/07/13 06:29:05;;;;;;;11.05;1.95;;;;;;;21.16;60.00;101234.06;5054236;28;20064;-59
2022/07/13 06:31:33;;;;;;;8.63;2.13;;;;;;;21.34;59.08;101238.66;5052403;28;20051;-57
2022/07/13 06:34:00;;;;;;;8.82;2.15;;;;;;;21.37;59.14;101231.19;5049228;28;20631;-57
2022/07/13 06:36:27;;;;;;;8.20;2.10;;;;;;;21.49;58.90;101229.19;5051374;28;20140;-56
2022/07/13 06:38:54;;;;;;;5.60;1.60;;;;;;;21.49;58.79;101226.50;5055379;28;20555;-57
2022/07/13 06:41:21;;;;;;;6.28;1.50;;;;;;;21.52;58.33;101234.22;5043593;28;20053;-59
2022/07/13 06:43:48;;;;;;;6.80;1.98;;;;;;;21.52;57.84;101223.50;5056900;28;20562;-59
2022/07/13 06:46:15;;;;;;;6.43;2.05;;;;;;;21.72;58.42;101224.31;5059287;28;20505;-58
2022/07/13 06:48:51;;;;;;;5.18;1.65;;;;;;;21.98;58.20;101243.22;5055361;28;20077;-57
2022/07/13 06:51:18;;;;;;;4.00;1.42;;;;;;;21.96;57.42;101227.25;5051153;28;20067;-58
2022/07/13 06:53:46;;;;;;;3.72;1.63;;;;;;;22.04;56.68;101226.53;5056441;28;20057;-57
2022/07/13 06:56:13;;;;;;;3.70;1.10;;;;;;;22.12;56.43;101232.00;5052330;28;20051;-58
2022/07/13 06:58:40;;;;;;;8.13;1.88;;;;;;;22.16;56.01;101233.41;5047820;28;20375;-58
2022/07/13 07:01:07;;;;;;;3.40;1.40;;;;;;;22.00;56.61;101230.50;5052824;28;20201;-59
2022/07/13 07:03:34;;;;;;;3.17;1.27;;;;;;;22.23;56.50;101212.16;5057998;28;20056;-59
2022/07/13 07:06:02;;;;;;;6.40;1.67;;;;;;;22.42;56.05;101209.34;5052312;28;20143;-57
2022/07/13 07:08:29;;;;;;;3.13;1.30;;;;;;;22.36;55.25;101207.28;5054578;28;20053;-55
2022/07/13 07:10:56;;;;;;;2.70;1.90;;;;;;;22.56;55.46;101205.31;5057405;28;20067;-57
2022/07/13 07:13:23;;;;;;;2.63;1.55;;;;;;;22.64;54.84;101199.97;5051894;22;20045;-59
2022/07/13 07:15:51;;;;;;;3.45;1.83;;;;;;;22.84;54.65;101187.25;5040109;28;20041;-57
2022/07/13 07:18:21;;;;;;;3.33;1.50;;;;;;;22.97;54.09;101189.53;5026536;28;20053;-58
2022/07/13 07:20:49;;;;;;;7.30;1.75;;;;;;;22.78;54.63;101187.00;5032413;28;20056;-57
2022/07/13 07:23:16;;;;;;;7.53;1.63;;;;;;;22.86;54.58;101177.16;5033067;28;20049;-58
2022/07/13 07:25:44;;;;;;;5.75;2.00;;;;;;;23.06;53.92;101180.53;5031751;28;20045;-58
2022/07/13 07:28:11;;;;;;;4.50;1.70;;;;;;;23.34;53.82;101170.47;5028849;28;20037;-58
2022/07/13 07:30:38;;;;;;;2.08;1.10;;;;;;;23.36;52.29;101163.06;5035324;28;20053;-58
2022/07/13 07:33:06;;;;;;;3.95;1.48;;;;;;;23.14;52.12;101169.81;5035514;28;20057;-62
2022/07/13 07:35:33;;;;;;;11.80;2.10;;;;;;;23.14;52.93;101169.81;5031199;28;20060;-57
2022/07/13 07:38:00;;;;;;;3.60;1.52;;;;;;;23.37;52.20;101166.59;5025553;28;20149;-57
2022/07/13 07:40:28;;;;;;;10.20;1.58;;;;;;;23.55;51.72;101172.75;5037603;28;20060;-58
2022/07/13 07:42:55;;;;;;;3.13;1.50;;;;;;;23.22;52.05;101175.25;5035501;28;20060;-58
2022/07/13 07:45:23;;;;;;;3.00;1.33;;;;;;;23.55;51.26;101172.75;5038907;28;20064;-57
2022/07/13 07:47:50;;;;;;;3.17;1.50;;;;;;;23.62;50.92;101176.47;5029802;28;20057;-59
2022/07/13 07:50:17;;;;;;;3.08;1.40;;;;;;;23.80;50.13;101171.00;5038135;28;20465;-56
2022/07/13 07:52:44;;;;;;;4.47;1.40;;;;;;;23.62;50.75;101171.06;5036014;28;20410;-58
2022/07/13 07:55:21;;;;;;;6.93;1.40;;;;;;;23.94;50.73;101181.13;5036296;28;20049;-57
2022/07/13 07:57:52;;;;;;;5.32;1.77;;;;;;;24.00;49.66;101175.13;5031977;28;20057;-58
2022/07/13 08:00:20;;;;;;;2.75;1.38;;;;;;;23.94;49.53;101170.38;5032546;28;20060;-58
2022/07/13 08:02:47;;;;;;;4.05;1.55;;;;;;;24.13;48.96;101166.53;5042524;28;20052;-57
2022/07/13 08:05:15;;;;;;;4.00;1.73;;;;;;;24.30;48.87;101166.56;5021798;28;20186;-58
2022/07/13 08:07:43;;;;;;;5.50;1.38;;;;;;;24.37;48.21;101170.31;5038264;28;20498;-57
2022/07/13 08:10:14;;;;;;;4.72;1.73;;;;;;;24.42;47.26;101168.81;5033415;28;20045;-58
2022/07/13 08:12:55;;;;;;;2.95;1.52;;;;;;;24.51;46.92;101166.97;5033485;28;20576;-58
2022/07/13 08:15:23;;;;;;;2.10;1.40;;;;;;;24.46;47.10;101172.84;5031338;28;20064;-58
2022/07/13 08:17:50;;;;;;;3.40;1.42;;;;;;;24.47;46.90;101165.63;5040538;28;20639;-59
2022/07/13 08:20:18;;;;;;;2.65;1.17;;;;;;;24.35;46.33;101164.22;5033927;28;20053;-59
2022/07/13 08:22:51;;;;;;;3.95;1.27;;;;;;;24.45;46.56;101152.34;5030023;28;20051;-56
2022/07/13 08:25:20;;;;;;;2.72;1.30;;;;;;;24.44;46.36;101161.38;5042443;28;20508;-59
2022/07/13 08:27:47;;;;;;;4.70;1.60;;;;;;;24.53;46.36;101151.47;5034970;28;20056;-59
2022/07/13 08:30:14;;;;;;;6.00;1.50;;;;;;;24.44;45.97;101142.56;5023373;28;20537;-58
2022/07/13 08:32:41;;;;;;;2.35;1.63;;;;;;;24.66;46.11;101157.19;5038701;28;20045;-59
2022/07/13 08:40:41;;;;;;;;;;;;;;;24.93;45.34;101155.13;5028748;28;20128;-59
2022/07/13 08:43:08;;;;;;;11.57;1.70;;;;;;;24.94;44.85;101151.44;5031048;28;19932;-59
2022/07/13 08:45:35;;;;;;;3.17;1.33;;;;;;;25.27;44.55;101144.16;5037900;28;20576;-59
2022/07/13 08:48:09;;;;;;;4.10;1.20;;;;;;;25.61;43.51;101127.63;5027905;28;20056;-59
2022/07/13 08:50:36;;;;;;;5.45;1.40;;;;;;;25.99;42.88;101128.66;5031824;28;20053;-57
2022/07/13 08:53:05;;;;;;;2.45;1.20;;;;;;;26.33;42.84;101118.44;5027280;28;20049;-60
2022/07/13 08:55:35;;;;;;;2.55;1.10;;;;;;;26.57;42.15;101123.66;5024448;28;20502;-60
2022/07/13 08:58:02;;;;;;;3.53;1.38;;;;;;;26.55;41.16;101128.41;5035455;28;20063;-59
2022/07/13 09:00:29;;;;;;;6.72;1.85;;;;;;;26.15;41.91;101132.22;5030870;28;20163;-59
2022/07/13 09:02:57;;;;;;;3.50;1.33;;;;;;;26.38;41.57;101132.22;5026391;28;20096;-59
2022/07/13 09:05:25;;;;;;;5.05;1.67;;;;;;;26.22;41.39;101122.41;5023790;28;20054;-59
2022/07/13 09:08:05;;;;;;;6.35;1.15;;;;;;;26.51;41.96;101117.13;5038006;28;20049;-59
2022/07/13 09:10:51;;;;;;;3.58;1.30;;;;;;;27.03;41.24;101112.72;5032335;28;20409;-59
2022/07/13 09:13:34;;;;;;;1.60;1.20;;;;;;;26.60;40.94;101131.38;5021849;28;20058;-59
2022/07/13 09:16:21;;;;;;;3.95;1.00;;;;;;;26.96;40.64;101128.00;5033976;28;20057;-59
2022/07/13 09:18:50;;;;;;;5.13;1.25;;;;;;;27.19;40.48;101120.66;5032581;28;20149;-60
2022/07/13 09:21:20;;;;;;;5.75;1.63;;;;;;;27.26;40.26;101126.16;5033031;28;20053;-60
2022/07/13 09:23:49;;;;;;;5.05;1.48;;;;;;;27.38;39.87;101121.97;5029224;28;20064;-60
2022/07/13 09:26:18;;;;;;;4.47;1.23;;;;;;;27.58;39.28;101116.78;5035863;28;20079;-59
2022/07/13 09:28:47;;;;;;;2.75;1.30;;;;;;;27.91;39.06;101109.06;5032158;28;20049;-60
2022/07/13 09:31:16;;;;;;;3.90;1.30;;;;;;;27.48;40.03;101108.16;5022447;28;20444;-59
2022/07/13 09:33:44;;;;;;;3.15;1.27;;;;;;;27.68;39.24;101095.69;5034152;28;20053;-58
2022/07/13 09:36:16;;;;;;;4.25;1.33;;;;;;;27.52;39.62;101104.03;5030182;28;21028;-59
2022/07/13 09:38:46;;;;;;;6.68;1.40;;;;;;;27.72;39.33;101105.13;5030912;28;20144;-58
2022/07/13 09:41:19;;;;;;;5.30;1.58;;;;;;;27.67;39.67;101112.09;5027130;28;20054;-60
2022/07/13 09:46:58;;;;;;;3.33;1.17;;;;;;;27.28;39.81;101113.28;5028885;28;20060;-59
2022/07/13 09:49:44;;;;;;;1.80;1.13;;;;;;;27.22;39.86;101106.78;5035624;28;20069;-58
2022/07/13 09:52:13;;;;;;;1.30;1.02;;;;;;;27.25;40.24;101100.16;5035255;28;20100;-56
2022/07/13 09:54:42;;;;;;;3.47;1.52;;;;;;;27.61;39.33;101102.91;5031655;28;20064;-55
2022/07/13 09:57:13;;;;;;;1.15;0.88;;;;;;;27.76;39.10;101098.31;5037189;28;20653;-58
2022/07/13 09:59:42;;;;;;;2.92;1.30;;;;;;;27.62;38.72;101096.44;5041682;28;20077;-59
2022/07/13 10:02:10;;;;;;;2.70;1.17;;;;;;;27.97;38.83;101102.06;5032950;28;20053;-59
2022/07/13 10:04:39;;;;;;;24.48;1.80;;;;;;;27.86;39.05;101095.28;5026671;28;20053;-57
2022/07/13 10:07:17;;;;;;;7.72;1.85;;;;;;;27.83;39.27;101092.97;5039490;28;20076;-57
2022/07/13 10:09:44;;;;;;;3.42;1.30;;;;;;;28.10;38.73;101079.69;5036982;28;20049;-58
2022/07/13 10:12:12;;;;;;;5.07;1.27;;;;;;;28.08;38.38;101092.59;5035247;28;20077;-59
2022/07/13 10:14:39;;;;;;;4.70;1.10;;;;;;;27.97;38.72;101083.13;5039041;28;20060;-59
2022/07/13 10:17:09;;;;;;;1.73;1.10;;;;;;;28.15;39.01;101088.91;5032113;28;20049;-57
2022/07/13 10:19:48;;;;;;;2.22;1.20;;;;;;;28.23;38.45;101090.63;5038739;28;20082;-56
2022/07/13 10:22:18;;;;;;;3.85;1.20;;;;;;;28.25;37.94;101081.28;5018056;28;20053;-58
2022/07/13 10:24:57;;;;;;;2.22;1.10;;;;;;;28.23;37.77;101083.38;5032334;28;20505;-58
2022/07/13 10:27:26;;;;;;;4.53;1.48;;;;;;;28.02;38.37;101086.09;5034600;28;20049;-57
2022/07/13 10:29:58;;;;;;;2.03;1.30;;;;;;;27.99;38.24;101079.19;5031747;28;20057;-54
2022/07/13 10:32:29;;;;;;;6.03;1.00;;;;;;;28.42;37.94;101079.19;5032989;28;20046;-57
2022/07/13 10:35:09;;;;;;;4.22;1.13;;;;;;;28.70;37.00;101084.59;5032374;28;20144;-58
2022/07/13 10:37:56;;;;;;;1.95;1.17;;;;;;;28.70;36.81;101079.16;5028147;28;20057;-59
2022/07/13 10:40:32;;;;;;;2.83;1.45;;;;;;;28.70;37.29;101059.38;5027593;28;20056;-59
2022/07/13 10:43:03;;;;;;;4.97;1.30;;;;;;;29.38;36.07;101067.66;5035860;28;20533;-58
2022/07/13 10:45:34;;;;;;;2.13;1.35;;;;;;;29.97;35.17;101072.41;5041268;28;20141;-56
2022/07/13 10:48:04;;;;;;;10.63;1.50;;;;;;;29.68;34.42;101070.91;5032692;28;20056;-59
2022/07/13 10:50:55;;;;;;;7.20;1.38;;;;;;;29.04;35.04;101073.97;5038165;28;20539;-59
2022/07/13 10:53:50;;;;;;;8.77;1.40;;;;;;;28.94;35.10;101079.72;5053079;28;20037;-58
2022/07/13 10:56:21;;;;;;;2.88;0.90;;;;;;;28.90;33.50;101073.03;5034517;28;20248;-58
2022/07/13 10:58:49;;;;;;;4.43;1.63;;;;;;;28.71;33.79;101067.28;5044044;28;20145;-58
2022/07/13 11:01:41;;;;;;;1.83;1.30;;;;;;;28.48;34.70;101064.00;5034628;28;20410;-58
2022/07/13 11:04:10;;;;;;;5.07;1.38;;;;;;;28.21;34.89;101049.38;5030356;28;20046;-57
2022/07/13 11:06:38;;;;;;;3.00;1.33;;;;;;;28.16;35.83;101054.56;5039205;28;20053;-57
2022/07/13 11:09:20;;;;;;;5.53;1.35;;;;;;;28.46;35.89;101064.22;5030538;28;20049;-56
2022/07/13 11:11:51;;;;;;;4.07;1.30;;;;;;;28.55;35.76;101061.31;5033650;28;20080;-58
2022/07/13 11:14:38;;;;;;;4.53;1.35;;;;;;;28.67;35.58;101060.59;5037146;28;20041;-58
2022/07/13 11:17:23;;;;;;;3.30;1.30;;;;;;;28.92;35.51;101063.66;5027009;28;20062;-60
2022/07/13 11:19:56;;;;;;;7.25;1.60;;;;;;;28.85;33.13;101068.19;5033391;28;20053;-56
2022/07/13 11:22:24;;;;;;;2.33;1.27;;;;;;;28.43;32.61;101059.19;5034838;28;20060;-56
2022/07/13 11:25:14;;;;;;;9.43;1.50;;;;;;;28.69;32.85;101068.53;5036867;28;20437;-55
2022/07/13 11:28:14;;;;;;;13.80;1.70;;;;;;;28.92;31.80;101057.41;5037134;28;20056;-58
2022/07/13 11:30:44;;;;;;;2.83;1.35;;;;;;;28.99;32.14;101052.88;5030146;28;21707;-57
2022/07/13 11:33:11;;;;;;;3.15;1.40;;;;;;;28.91;32.27;101050.28;5029405;28;20045;-58
2022/07/13 11:35:44;;;;;;;2.72;1.40;;;;;;;28.84;32.57;101060.28;5029853;28;20068;-56
2022/07/13 11:38:13;;;;;;;2.92;1.20;;;;;;;28.58;32.92;101058.22;5032047;28;20050;-58
2022/07/13 11:40:41;;;;;;;2.65;1.52;;;;;;;28.32;33.83;101058.84;5036711;28;20501;-56
2022/07/13 11:43:08;;;;;;;3.63;1.13;;;;;;;28.13;34.58;101039.53;5026996;28;20054;-61
2022/07/13 11:45:41;;;;;;;14.57;2.67;;;;;;;28.31;34.59;101043.63;5034664;28;20132;-58